sensor_id;sensor_type;location;lat;lon;timestamp;P1;durP1;ratioP1;P2;durP2;ratioP2
62435;SDS011;48480;50.252;18.848;2023-06-22T00:01:06;10.90;;;7.70;;
62435;SDS011;48480;50.252;18.848;2023-06-22T00:03:51;13.60;;;7.50;;
62435;SDS011;48480;50.252;18.848;2023-06-22T00:06:35;10.20;;;7.80;;
62435;SDS011;48480;50.252;18.848;2023-06-22T00:09:19;10.10;;;7.80;;
62435;SDS011;48480;50.252;18.848;2023-06-22T00:12:03;11.80;;;8.30;;
62435;SDS011;48480;50.252;18.848;2023-06-22T00:14:48;13.30;;;9.10;;
62435;SDS011;48480;50.252;18.848;2023-06-22T00:17:32;11.40;;;9.30;;
62435;SDS011;48480;50.252;18.848;2023-06-22T00:20:16;14.20;;;8.50;;
62435;SDS011;48480;50.252;18.848;2023-06-22T00:23:02;12.80;;;8.50;;
62435;SDS011;48480;50.252;18.848;2023-06-22T00:25:54;10.60;;;8.00;;
62435;SDS011;48480;50.252;18.848;2023-06-22T00:28:38;11.00;;;8.10;;
62435;SDS011;48480;50.252;18.848;2023-06-22T00:31:23;15.80;;;8.20;;
62435;SDS011;48480;50.252;18.848;2023-06-22T00:34:06;13.60;;;7.20;;
62435;SDS011;48480;50.252;18.848;2023-06-22T00:36:52;12.90;;;7.80;;
62435;SDS011;48480;50.252;18.848;2023-06-22T00:39:36;10.10;;;7.30;;
62435;SDS011;48480;50.252;18.848;2023-06-22T00:42:21;12.00;;;6.10;;
62435;SDS011;48480;50.252;18.848;2023-06-22T00:45:05;11.00;;;6.20;;
62435;SDS011;48480;50.252;18.848;2023-06-22T00:47:53;9.90;;;6.20;;
62435;SDS011;48480;50.252;18.848;2023-06-22T00:50:40;12.70;;;6.90;;
62435;SDS011;48480;50.252;18.848;2023-06-22T00:53:24;14.00;;;7.20;;
62435;SDS011;48480;50.252;18.848;2023-06-22T00:56:08;10.90;;;6.40;;
62435;SDS011;48480;50.252;18.848;2023-06-22T00:58:52;14.10;;;6.40;;
62435;SDS011;48480;50.252;18.848;2023-06-22T01:01:37;10.80;;;6.40;;
62435;SDS011;48480;50.252;18.848;2023-06-22T01:04:34;9.60;;;6.30;;
62435;SDS011;48480;50.252;18.848;2023-06-22T01:16:35;8.00;;;5.60;;
62435;SDS011;48480;50.252;18.848;2023-06-22T01:22:30;8.30;;;6.10;;
62435;SDS011;48480;50.252;18.848;2023-06-22T01:25:28;10.70;;;5.90;;
62435;SDS011;48480;50.252;18.848;2023-06-22T01:28:51;10.00;;;6.10;;
62435;SDS011;48480;50.252;18.848;2023-06-22T01:31:38;12.20;;;6.00;;
62435;SDS011;48480;50.252;18.848;2023-06-22T01:34:25;9.30;;;6.20;;
62435;SDS011;48480;50.252;18.848;2023-06-22T01:37:09;10.40;;;6.50;;
62435;SDS011;48480;50.252;18.848;2023-06-22T01:39:54;11.90;;;6.60;;
62435;SDS011;48480;50.252;18.848;2023-06-22T01:42:39;10.40;;;6.30;;
62435;SDS011;48480;50.252;18.848;2023-06-22T01:45:25;12.10;;;5.80;;
62435;SDS011;48480;50.252;18.848;2023-06-22T01:48:10;12.60;;;7.10;;
62435;SDS011;48480;50.252;18.848;2023-06-22T01:50:54;10.30;;;6.60;;
62435;SDS011;48480;50.252;18.848;2023-06-22T01:53:39;9.90;;;6.20;;
62435;SDS011;48480;50.252;18.848;2023-06-22T01:56:23;11.60;;;6.30;;
62435;SDS011;48480;50.252;18.848;2023-06-22T01:59:12;10.60;;;7.00;;
62435;SDS011;48480;50.252;18.848;2023-06-22T02:02:06;13.90;;;6.50;;
62435;SDS011;48480;50.252;18.848;2023-06-22T02:04:59;12.20;;;6.10;;
62435;SDS011;48480;50.252;18.848;2023-06-22T02:08:08;10.50;;;6.10;;
62435;SDS011;48480;50.252;18.848;2023-06-22T02:10:55;10.40;;;6.50;;
62435;SDS011;48480;50.252;18.848;2023-06-22T02:13:41;12.70;;;6.10;;
62435;SDS011;48480;50.252;18.848;2023-06-22T02:16:26;12.90;;;7.00;;
62435;SDS011;48480;50.252;18.848;2023-06-22T02:19:13;8.40;;;5.80;;
62435;SDS011;48480;50.252;18.848;2023-06-22T02:22:03;11.10;;;6.70;;
62435;SDS011;48480;50.252;18.848;2023-06-22T02:24:47;10.50;;;6.60;;
62435;SDS011;48480;50.252;18.848;2023-06-22T02:27:32;10.60;;;6.20;;
62435;SDS011;48480;50.252;18.848;2023-06-22T02:30:15;15.40;;;6.90;;
62435;SDS011;48480;50.252;18.848;2023-06-22T02:33:00;12.10;;;6.90;;
62435;SDS011;48480;50.252;18.848;2023-06-22T02:35:43;13.10;;;6.00;;
62435;SDS011;48480;50.252;18.848;2023-06-22T02:38:31;9.60;;;6.40;;
62435;SDS011;48480;50.252;18.848;2023-06-22T02:41:20;10.10;;;6.10;;
62435;SDS011;48480;50.252;18.848;2023-06-22T02:44:03;9.70;;;6.10;;
62435;SDS011;48480;50.252;18.848;2023-06-22T02:46:48;10.30;;;7.20;;
62435;SDS011;48480;50.252;18.848;2023-06-22T02:49:32;9.80;;;6.40;;
62435;SDS011;48480;50.252;18.848;2023-06-22T02:52:16;10.50;;;6.60;;
62435;SDS011;48480;50.252;18.848;2023-06-22T02:55:00;10.00;;;6.70;;
62435;SDS011;48480;50.252;18.848;2023-06-22T02:57:44;13.70;;;7.00;;
62435;SDS011;48480;50.252;18.848;2023-06-22T03:00:30;10.80;;;6.50;;
62435;SDS011;48480;50.252;18.848;2023-06-22T03:03:15;11.40;;;6.80;;
62435;SDS011;48480;50.252;18.848;2023-06-22T03:05:58;11.50;;;6.70;;
62435;SDS011;48480;50.252;18.848;2023-06-22T03:08:44;14.40;;;6.50;;
62435;SDS011;48480;50.252;18.848;2023-06-22T03:11:29;11.00;;;6.90;;
62435;SDS011;48480;50.252;18.848;2023-06-22T03:14:14;12.10;;;6.50;;
62435;SDS011;48480;50.252;18.848;2023-06-22T03:16:57;13.90;;;6.40;;
62435;SDS011;48480;50.252;18.848;2023-06-22T03:19:46;11.90;;;6.30;;
62435;SDS011;48480;50.252;18.848;2023-06-22T03:22:34;13.30;;;7.00;;
62435;SDS011;48480;50.252;18.848;2023-06-22T03:25:27;9.50;;;6.10;;
62435;SDS011;48480;50.252;18.848;2023-06-22T03:28:14;8.10;;;6.10;;
62435;SDS011;48480;50.252;18.848;2023-06-22T03:30:58;11.90;;;6.90;;
62435;SDS011;48480;50.252;18.848;2023-06-22T03:33:49;11.50;;;6.70;;
62435;SDS011;48480;50.252;18.848;2023-06-22T03:36:33;14.70;;;6.60;;
62435;SDS011;48480;50.252;18.848;2023-06-22T03:42:09;10.90;;;6.10;;
62435;SDS011;48480;50.252;18.848;2023-06-22T03:47:31;11.10;;;6.00;;
62435;SDS011;48480;50.252;18.848;2023-06-22T03:50:16;10.20;;;5.90;;
62435;SDS011;48480;50.252;18.848;2023-06-22T03:52:59;11.90;;;7.00;;
62435;SDS011;48480;50.252;18.848;2023-06-22T03:55:51;12.90;;;6.30;;
62435;SDS011;48480;50.252;18.848;2023-06-22T03:58:42;12.40;;;6.60;;
62435;SDS011;48480;50.252;18.848;2023-06-22T04:01:27;13.30;;;6.30;;
62435;SDS011;48480;50.252;18.848;2023-06-22T04:04:14;10.60;;;6.50;;
62435;SDS011;48480;50.252;18.848;2023-06-22T04:06:58;11.50;;;6.50;;
62435;SDS011;48480;50.252;18.848;2023-06-22T04:12:33;11.00;;;6.00;;
62435;SDS011;48480;50.252;18.848;2023-06-22T04:18:11;10.80;;;6.80;;
62435;SDS011;48480;50.252;18.848;2023-06-22T04:23:49;10.80;;;6.50;;
62435;SDS011;48480;50.252;18.848;2023-06-22T04:29:27;12.80;;;7.00;;
62435;SDS011;48480;50.252;18.848;2023-06-22T04:35:05;14.10;;;8.00;;
62435;SDS011;48480;50.252;18.848;2023-06-22T04:40:43;13.10;;;7.80;;
62435;SDS011;48480;50.252;18.848;2023-06-22T04:46:21;16.00;;;8.20;;
62435;SDS011;48480;50.252;18.848;2023-06-22T04:51:42;14.50;;;8.60;;
62435;SDS011;48480;50.252;18.848;2023-06-22T04:54:26;11.10;;;8.90;;
62435;SDS011;48480;50.252;18.848;2023-06-22T04:57:13;13.10;;;9.30;;
62435;SDS011;48480;50.252;18.848;2023-06-22T04:59:57;17.30;;;9.00;;
62435;SDS011;48480;50.252;18.848;2023-06-22T05:02:49;12.20;;;8.50;;
62435;SDS011;48480;50.252;18.848;2023-06-22T05:05:33;14.90;;;10.00;;
62435;SDS011;48480;50.252;18.848;2023-06-22T05:11:08;16.30;;;12.40;;
62435;SDS011;48480;50.252;18.848;2023-06-22T05:16:45;17.20;;;12.60;;
62435;SDS011;48480;50.252;18.848;2023-06-22T05:22:23;16.00;;;14.00;;
62435;SDS011;48480;50.252;18.848;2023-06-22T05:28:02;17.10;;;15.30;;
62435;SDS011;48480;50.252;18.848;2023-06-22T05:30:58;18.30;;;15.60;;
62435;SDS011;48480;50.252;18.848;2023-06-22T05:33:43;18.80;;;16.30;;
62435;SDS011;48480;50.252;18.848;2023-06-22T05:36:44;21.00;;;17.90;;
62435;SDS011;48480;50.252;18.848;2023-06-22T05:39:28;20.40;;;16.20;;
62435;SDS011;48480;50.252;18.848;2023-06-22T05:42:19;20.00;;;16.60;;
62435;SDS011;48480;50.252;18.848;2023-06-22T05:45:03;20.00;;;16.40;;
62435;SDS011;48480;50.252;18.848;2023-06-22T05:47:50;18.40;;;16.40;;
62435;SDS011;48480;50.252;18.848;2023-06-22T05:50:36;19.50;;;17.10;;
62435;SDS011;48480;50.252;18.848;2023-06-22T05:56:11;19.20;;;17.30;;
62435;SDS011;48480;50.252;18.848;2023-06-22T06:01:49;18.70;;;16.40;;
62435;SDS011;48480;50.252;18.848;2023-06-22T06:07:12;16.50;;;14.80;;
62435;SDS011;48480;50.252;18.848;2023-06-22T06:09:55;18.70;;;15.70;;
62435;SDS011;48480;50.252;18.848;2023-06-22T06:12:40;17.10;;;15.20;;
62435;SDS011;48480;50.252;18.848;2023-06-22T06:15:24;17.60;;;15.50;;
62435;SDS011;48480;50.252;18.848;2023-06-22T06:18:15;16.90;;;15.20;;
62435;SDS011;48480;50.252;18.848;2023-06-22T06:20:59;17.30;;;15.60;;
62435;SDS011;48480;50.252;18.848;2023-06-22T06:26:36;18.00;;;16.20;;
62435;SDS011;48480;50.252;18.848;2023-06-22T06:32:14;16.90;;;15.20;;
62435;SDS011;48480;50.252;18.848;2023-06-22T06:37:51;16.40;;;14.80;;
62435;SDS011;48480;50.252;18.848;2023-06-22T06:43:30;13.10;;;11.90;;
62435;SDS011;48480;50.252;18.848;2023-06-22T06:49:07;13.50;;;12.10;;
62435;SDS011;48480;50.252;18.848;2023-06-22T06:54:45;14.30;;;13.00;;
62435;SDS011;48480;50.252;18.848;2023-06-22T07:00:24;12.70;;;10.40;;
62435;SDS011;48480;50.252;18.848;2023-06-22T07:06:02;11.10;;;10.00;;
62435;SDS011;48480;50.252;18.848;2023-06-22T07:11:40;10.00;;;9.10;;
62435;SDS011;48480;50.252;18.848;2023-06-22T07:18:05;11.70;;;9.30;;
62435;SDS011;48480;50.252;18.848;2023-06-22T07:20:48;10.70;;;8.50;;
62435;SDS011;48480;50.252;18.848;2023-06-22T07:23:41;9.40;;;8.40;;
62435;SDS011;48480;50.252;18.848;2023-06-22T07:26:25;8.90;;;8.10;;
62435;SDS011;48480;50.252;18.848;2023-06-22T07:29:13;9.70;;;8.70;;
62435;SDS011;48480;50.252;18.848;2023-06-22T07:31:57;9.40;;;8.20;;
62435;SDS011;48480;50.252;18.848;2023-06-22T07:37:34;8.80;;;7.90;;
62435;SDS011;48480;50.252;18.848;2023-06-22T07:43:12;8.00;;;7.30;;
62435;SDS011;48480;50.252;18.848;2023-06-22T07:48:50;13.40;;;8.00;;
62435;SDS011;48480;50.252;18.848;2023-06-22T07:54:28;10.40;;;8.60;;
62435;SDS011;48480;50.252;18.848;2023-06-22T07:59:48;10.00;;;8.50;;
62435;SDS011;48480;50.252;18.848;2023-06-22T08:02:33;9.60;;;8.40;;
62435;SDS011;48480;50.252;18.848;2023-06-22T08:05:17;9.10;;;8.20;;
62435;SDS011;48480;50.252;18.848;2023-06-22T08:08:02;11.50;;;8.70;;
62435;SDS011;48480;50.252;18.848;2023-06-22T08:19:15;8.70;;;7.80;;
62435;SDS011;48480;50.252;18.848;2023-06-22T08:21:59;8.90;;;7.50;;
62435;SDS011;48480;50.252;18.848;2023-06-22T08:24:53;9.70;;;7.90;;
62435;SDS011;48480;50.252;18.848;2023-06-22T08:30:33;7.20;;;6.60;;
62435;SDS011;48480;50.252;18.848;2023-06-22T08:36:09;10.00;;;6.90;;
62435;SDS011;48480;50.252;18.848;2023-06-22T08:41:46;8.60;;;6.90;;
62435;SDS011;48480;50.252;18.848;2023-06-22T08:47:27;8.90;;;7.50;;
62435;SDS011;48480;50.252;18.848;2023-06-22T08:50:19;11.50;;;8.60;;
62435;SDS011;48480;50.252;18.848;2023-06-22T08:53:04;8.30;;;7.60;;
62435;SDS011;48480;50.252;18.848;2023-06-22T08:56:04;9.70;;;7.80;;
62435;SDS011;48480;50.252;18.848;2023-06-22T08:58:58;8.30;;;7.50;;
62435;SDS011;48480;50.252;18.848;2023-06-22T09:01:39;8.10;;;7.30;;
62435;SDS011;48480;50.252;18.848;2023-06-22T09:04:24;8.20;;;7.40;;
62435;SDS011;48480;50.252;18.848;2023-06-22T09:07:15;10.10;;;8.00;;
62435;SDS011;48480;50.252;18.848;2023-06-22T09:10:06;10.10;;;7.30;;
62435;SDS011;48480;50.252;18.848;2023-06-22T09:12:54;9.10;;;7.30;;
62435;SDS011;48480;50.252;18.848;2023-06-22T09:15:39;13.90;;;8.40;;
62435;SDS011;48480;50.252;18.848;2023-06-22T09:18:30;12.20;;;8.00;;
62435;SDS011;48480;50.252;18.848;2023-06-22T09:21:17;8.10;;;7.10;;
62435;SDS011;48480;50.252;18.848;2023-06-22T09:24:08;8.70;;;7.90;;
62435;SDS011;48480;50.252;18.848;2023-06-22T09:26:53;8.50;;;7.50;;
62435;SDS011;48480;50.252;18.848;2023-06-22T09:32:28;7.10;;;6.30;;
62435;SDS011;48480;50.252;18.848;2023-06-22T09:37:50;7.40;;;6.60;;
62435;SDS011;48480;50.252;18.848;2023-06-22T09:40:34;7.70;;;6.30;;
62435;SDS011;48480;50.252;18.848;2023-06-22T09:43:18;6.60;;;6.00;;
62435;SDS011;48480;50.252;18.848;2023-06-22T09:46:06;8.70;;;7.00;;
62435;SDS011;48480;50.252;18.848;2023-06-22T09:48:59;7.80;;;6.10;;
62435;SDS011;48480;50.252;18.848;2023-06-22T09:51:47;7.20;;;6.50;;
62435;SDS011;48480;50.252;18.848;2023-06-22T09:54:49;7.50;;;6.20;;
62435;SDS011;48480;50.252;18.848;2023-06-22T09:57:33;9.10;;;6.60;;
62435;SDS011;48480;50.252;18.848;2023-06-22T10:03:11;7.60;;;6.30;;
62435;SDS011;48480;50.252;18.848;2023-06-22T10:05:50;7.60;;;6.80;;
62435;SDS011;48480;50.252;18.848;2023-06-22T10:08:34;7.30;;;6.60;;
62435;SDS011;48480;50.252;18.848;2023-06-22T10:11:25;7.50;;;6.20;;
62435;SDS011;48480;50.252;18.848;2023-06-22T10:14:13;7.00;;;5.90;;
62435;SDS011;48480;50.252;18.848;2023-06-22T10:17:05;6.90;;;5.80;;
62435;SDS011;48480;50.252;18.848;2023-06-22T10:19:51;7.20;;;6.00;;
62435;SDS011;48480;50.252;18.848;2023-06-22T10:22:46;7.90;;;6.40;;
62435;SDS011;48480;50.252;18.848;2023-06-22T10:25:31;7.80;;;5.70;;
62435;SDS011;48480;50.252;18.848;2023-06-22T10:28:22;8.30;;;5.90;;
62435;SDS011;48480;50.252;18.848;2023-06-22T10:31:06;6.80;;;6.00;;
62435;SDS011;48480;50.252;18.848;2023-06-22T10:34:19;6.50;;;5.80;;
62435;SDS011;48480;50.252;18.848;2023-06-22T10:39:47;8.00;;;6.60;;
62435;SDS011;48480;50.252;18.848;2023-06-22T10:43:03;8.20;;;6.70;;
62435;SDS011;48480;50.252;18.848;2023-06-22T10:45:52;7.10;;;6.10;;
62435;SDS011;48480;50.252;18.848;2023-06-22T10:48:38;6.80;;;6.20;;
62435;SDS011;48480;50.252;18.848;2023-06-22T10:51:43;7.30;;;5.80;;
62435;SDS011;48480;50.252;18.848;2023-06-22T10:54:42;6.90;;;6.10;;
62435;SDS011;48480;50.252;18.848;2023-06-22T11:00:19;7.30;;;6.50;;
62435;SDS011;48480;50.252;18.848;2023-06-22T11:05:58;7.30;;;6.60;;
62435;SDS011;48480;50.252;18.848;2023-06-22T11:11:38;7.30;;;6.60;;
62435;SDS011;48480;50.252;18.848;2023-06-22T11:17:00;7.10;;;6.40;;
62435;SDS011;48480;50.252;18.848;2023-06-22T11:19:47;8.30;;;6.20;;
62435;SDS011;48480;50.252;18.848;2023-06-22T11:22:43;7.00;;;6.10;;
62435;SDS011;48480;50.252;18.848;2023-06-22T11:25:28;7.00;;;6.30;;
62435;SDS011;48480;50.252;18.848;2023-06-22T11:28:09;6.90;;;6.30;;
62435;SDS011;48480;50.252;18.848;2023-06-22T11:30:53;7.50;;;6.80;;
62435;SDS011;48480;50.252;18.848;2023-06-22T11:34:00;6.80;;;6.20;;
62435;SDS011;48480;50.252;18.848;2023-06-22T11:39:30;8.10;;;6.10;;
62435;SDS011;48480;50.252;18.848;2023-06-22T11:42:14;8.10;;;6.70;;
62435;SDS011;48480;50.252;18.848;2023-06-22T11:45:26;7.70;;;6.20;;
62435;SDS011;48480;50.252;18.848;2023-06-22T11:48:20;7.00;;;6.20;;
62435;SDS011;48480;50.252;18.848;2023-06-22T11:51:05;7.30;;;6.20;;
62435;SDS011;48480;50.252;18.848;2023-06-22T11:53:58;6.70;;;6.10;;
62435;SDS011;48480;50.252;18.848;2023-06-22T11:56:46;6.90;;;6.10;;
62435;SDS011;48480;50.252;18.848;2023-06-22T11:59:37;7.60;;;5.80;;
62435;SDS011;48480;50.252;18.848;2023-06-22T12:05:40;8.60;;;6.20;;
62435;SDS011;48480;50.252;18.848;2023-06-22T12:11:33;6.40;;;5.80;;
62435;SDS011;48480;50.252;18.848;2023-06-22T12:14:18;6.70;;;6.00;;
62435;SDS011;48480;50.252;18.848;2023-06-22T12:17:04;7.80;;;5.80;;
62435;SDS011;48480;50.252;18.848;2023-06-22T12:19:51;6.20;;;5.60;;
62435;SDS011;48480;50.252;18.848;2023-06-22T12:22:35;7.20;;;6.20;;
62435;SDS011;48480;50.252;18.848;2023-06-22T12:25:30;6.90;;;6.00;;
62435;SDS011;48480;50.252;18.848;2023-06-22T12:28:15;6.30;;;5.70;;
62435;SDS011;48480;50.252;18.848;2023-06-22T12:31:14;6.50;;;5.80;;
62435;SDS011;48480;50.252;18.848;2023-06-22T12:33:59;6.30;;;5.70;;
62435;SDS011;48480;50.252;18.848;2023-06-22T12:36:46;6.60;;;5.80;;
62435;SDS011;48480;50.252;18.848;2023-06-22T12:39:33;6.80;;;5.70;;
62435;SDS011;48480;50.252;18.848;2023-06-22T12:42:24;6.40;;;5.80;;
62435;SDS011;48480;50.252;18.848;2023-06-22T12:45:10;6.40;;;5.70;;
62435;SDS011;48480;50.252;18.848;2023-06-22T12:48:03;6.00;;;5.50;;
62435;SDS011;48480;50.252;18.848;2023-06-22T12:50:47;6.40;;;5.80;;
62435;SDS011;48480;50.252;18.848;2023-06-22T12:53:38;6.80;;;5.70;;
62435;SDS011;48480;50.252;18.848;2023-06-22T13:01:43;7.40;;;5.70;;
62435;SDS011;48480;50.252;18.848;2023-06-22T13:04:29;6.90;;;6.20;;
62435;SDS011;48480;50.252;18.848;2023-06-22T13:07:12;6.50;;;5.50;;
62435;SDS011;48480;50.252;18.848;2023-06-22T13:09:56;6.30;;;5.70;;
62435;SDS011;48480;50.252;18.848;2023-06-22T13:12:48;5.90;;;5.40;;
62435;SDS011;48480;50.252;18.848;2023-06-22T13:15:35;6.20;;;5.50;;
62435;SDS011;48480;50.252;18.848;2023-06-22T13:18:24;6.70;;;6.00;;
62435;SDS011;48480;50.252;18.848;2023-06-22T13:21:09;5.80;;;5.10;;
62435;SDS011;48480;50.252;18.848;2023-06-22T13:26:45;6.30;;;5.50;;
62435;SDS011;48480;50.252;18.848;2023-06-22T13:29:47;6.20;;;5.60;;
62435;SDS011;48480;50.252;18.848;2023-06-22T13:35:26;6.40;;;5.30;;
62435;SDS011;48480;50.252;18.848;2023-06-22T13:38:11;6.10;;;5.50;;
62435;SDS011;48480;50.252;18.848;2023-06-22T13:40:58;6.20;;;5.50;;
62435;SDS011;48480;50.252;18.848;2023-06-22T13:43:44;6.40;;;5.60;;
62435;SDS011;48480;50.252;18.848;2023-06-22T13:46:35;6.00;;;5.40;;
62435;SDS011;48480;50.252;18.848;2023-06-22T13:49:29;6.50;;;5.80;;
62435;SDS011;48480;50.252;18.848;2023-06-22T13:52:16;6.40;;;5.30;;
62435;SDS011;48480;50.252;18.848;2023-06-22T13:55:01;5.90;;;5.30;;
62435;SDS011;48480;50.252;18.848;2023-06-22T13:57:51;6.40;;;5.60;;
62435;SDS011;48480;50.252;18.848;2023-06-22T14:00:35;6.20;;;5.50;;
62435;SDS011;48480;50.252;18.848;2023-06-22T14:03:36;5.90;;;5.30;;
62435;SDS011;48480;50.252;18.848;2023-06-22T14:06:20;5.40;;;4.90;;
62435;SDS011;48480;50.252;18.848;2023-06-22T14:09:07;5.80;;;5.20;;
62435;SDS011;48480;50.252;18.848;2023-06-22T14:11:53;7.00;;;5.30;;
62435;SDS011;48480;50.252;18.848;2023-06-22T14:14:44;6.40;;;5.80;;
62435;SDS011;48480;50.252;18.848;2023-06-22T14:17:29;5.70;;;5.20;;
62435;SDS011;48480;50.252;18.848;2023-06-22T14:23:05;5.70;;;5.20;;
62435;SDS011;48480;50.252;18.848;2023-06-22T14:28:45;6.80;;;5.50;;
62435;SDS011;48480;50.252;18.848;2023-06-22T14:31:40;7.40;;;5.70;;
62435;SDS011;48480;50.252;18.848;2023-06-22T14:34:29;5.60;;;5.10;;
62435;SDS011;48480;50.252;18.848;2023-06-22T14:37:17;6.20;;;5.20;;
62435;SDS011;48480;50.252;18.848;2023-06-22T14:40:02;6.20;;;5.60;;
62435;SDS011;48480;50.252;18.848;2023-06-22T14:42:55;5.90;;;5.10;;
62435;SDS011;48480;50.252;18.848;2023-06-22T14:45:41;6.40;;;5.70;;
62435;SDS011;48480;50.252;18.848;2023-06-22T14:48:34;5.80;;;5.20;;
62435;SDS011;48480;50.252;18.848;2023-06-22T14:51:19;5.80;;;5.20;;
62435;SDS011;48480;50.252;18.848;2023-06-22T14:54:12;6.40;;;5.70;;
62435;SDS011;48480;50.252;18.848;2023-06-22T14:56:57;6.80;;;5.30;;
62435;SDS011;48480;50.252;18.848;2023-06-22T14:59:50;6.70;;;5.90;;
62435;SDS011;48480;50.252;18.848;2023-06-22T15:02:34;6.10;;;5.50;;
62435;SDS011;48480;50.252;18.848;2023-06-22T15:05:27;7.20;;;5.30;;
62435;SDS011;48480;50.252;18.848;2023-06-22T15:08:12;6.00;;;5.40;;
62435;SDS011;48480;50.252;18.848;2023-06-22T15:11:13;13.30;;;11.90;;
62435;SDS011;48480;50.252;18.848;2023-06-22T15:13:58;11.50;;;10.30;;
62435;SDS011;48480;50.252;18.848;2023-06-22T15:16:44;6.10;;;5.50;;
62435;SDS011;48480;50.252;18.848;2023-06-22T15:19:29;7.80;;;5.20;;
62435;SDS011;48480;50.252;18.848;2023-06-22T15:25:23;6.70;;;5.50;;
62435;SDS011;48480;50.252;18.848;2023-06-22T15:28:09;5.80;;;5.30;;
62435;SDS011;48480;50.252;18.848;2023-06-22T15:30:54;5.80;;;5.30;;
62435;SDS011;48480;50.252;18.848;2023-06-22T15:33:38;6.20;;;5.60;;
62435;SDS011;48480;50.252;18.848;2023-06-22T15:36:22;7.60;;;5.90;;
62435;SDS011;48480;50.252;18.848;2023-06-22T15:39:23;5.30;;;4.90;;
62435;SDS011;48480;50.252;18.848;2023-06-22T15:42:08;7.20;;;6.20;;
62435;SDS011;48480;50.252;18.848;2023-06-22T15:44:53;7.00;;;6.00;;
62435;SDS011;48480;50.252;18.848;2023-06-22T15:47:37;5.80;;;5.30;;
62435;SDS011;48480;50.252;18.848;2023-06-22T15:50:38;6.80;;;6.20;;
62435;SDS011;48480;50.252;18.848;2023-06-22T15:53:23;8.70;;;5.20;;
62435;SDS011;48480;50.252;18.848;2023-06-22T15:56:11;6.20;;;5.40;;
62435;SDS011;48480;50.252;18.848;2023-06-22T15:58:56;5.70;;;5.20;;
62435;SDS011;48480;50.252;18.848;2023-06-22T16:01:50;7.70;;;5.80;;
62435;SDS011;48480;50.252;18.848;2023-06-22T16:04:35;5.60;;;5.00;;
62435;SDS011;48480;50.252;18.848;2023-06-22T16:07:23;5.80;;;5.30;;
62435;SDS011;48480;50.252;18.848;2023-06-22T16:10:08;5.80;;;5.30;;
62435;SDS011;48480;50.252;18.848;2023-06-22T16:15:44;5.90;;;5.30;;
62435;SDS011;48480;50.252;18.848;2023-06-22T16:21:08;6.20;;;5.60;;
62435;SDS011;48480;50.252;18.848;2023-06-22T16:23:53;7.00;;;5.60;;
62435;SDS011;48480;50.252;18.848;2023-06-22T16:26:40;8.60;;;7.70;;
62435;SDS011;48480;50.252;18.848;2023-06-22T16:29:25;8.30;;;7.50;;
62435;SDS011;48480;50.252;18.848;2023-06-22T16:32:11;6.00;;;5.40;;
62435;SDS011;48480;50.252;18.848;2023-06-22T16:34:57;6.20;;;5.60;;
62435;SDS011;48480;50.252;18.848;2023-06-22T16:37:48;5.60;;;5.10;;
62435;SDS011;48480;50.252;18.848;2023-06-22T16:40:33;8.00;;;5.30;;
62435;SDS011;48480;50.252;18.848;2023-06-22T16:46:09;6.60;;;5.70;;
62435;SDS011;48480;50.252;18.848;2023-06-22T16:54:44;6.60;;;4.90;;
62435;SDS011;48480;50.252;18.848;2023-06-22T16:57:30;5.80;;;5.30;;
62435;SDS011;48480;50.252;18.848;2023-06-22T17:00:21;7.30;;;5.30;;
62435;SDS011;48480;50.252;18.848;2023-06-22T17:08:40;5.80;;;5.00;;
62435;SDS011;48480;50.252;18.848;2023-06-22T17:14:18;7.30;;;6.60;;
62435;SDS011;48480;50.252;18.848;2023-06-22T17:19:41;8.60;;;6.10;;
62435;SDS011;48480;50.252;18.848;2023-06-22T17:22:26;9.60;;;6.90;;
62435;SDS011;48480;50.252;18.848;2023-06-22T17:25:09;7.60;;;6.00;;
62435;SDS011;48480;50.252;18.848;2023-06-22T17:28:02;9.40;;;7.40;;
62435;SDS011;48480;50.252;18.848;2023-06-22T17:30:46;12.50;;;8.90;;
62435;SDS011;48480;50.252;18.848;2023-06-22T17:33:31;7.80;;;6.30;;
62435;SDS011;48480;50.252;18.848;2023-06-22T17:36:31;7.20;;;5.40;;
62435;SDS011;48480;50.252;18.848;2023-06-22T17:39:20;6.50;;;5.50;;
62435;SDS011;48480;50.252;18.848;2023-06-22T17:42:03;6.20;;;5.50;;
62435;SDS011;48480;50.252;18.848;2023-06-22T17:44:50;7.90;;;6.00;;
62435;SDS011;48480;50.252;18.848;2023-06-22T17:47:38;7.10;;;6.10;;
62435;SDS011;48480;50.252;18.848;2023-06-22T17:50:23;8.30;;;5.90;;
62435;SDS011;48480;50.252;18.848;2023-06-22T17:53:18;6.70;;;6.10;;
62435;SDS011;48480;50.252;18.848;2023-06-22T17:56:03;8.50;;;6.00;;
62435;SDS011;48480;50.252;18.848;2023-06-22T17:58:54;7.50;;;6.10;;
62435;SDS011;48480;50.252;18.848;2023-06-22T18:01:41;10.30;;;6.10;;
62435;SDS011;48480;50.252;18.848;2023-06-22T18:04:33;8.00;;;6.40;;
62435;SDS011;48480;50.252;18.848;2023-06-22T18:07:17;7.00;;;6.30;;
62435;SDS011;48480;50.252;18.848;2023-06-22T18:10:10;7.20;;;6.50;;
62435;SDS011;48480;50.252;18.848;2023-06-22T18:12:54;8.60;;;6.30;;
62435;SDS011;48480;50.252;18.848;2023-06-22T18:18:31;10.80;;;6.70;;
62435;SDS011;48480;50.252;18.848;2023-06-22T18:24:09;11.00;;;7.30;;
62435;SDS011;48480;50.252;18.848;2023-06-22T18:29:31;8.60;;;6.90;;
62435;SDS011;48480;50.252;18.848;2023-06-22T18:32:16;8.80;;;7.30;;
62435;SDS011;48480;50.252;18.848;2023-06-22T18:34:59;8.10;;;7.20;;
62435;SDS011;48480;50.252;18.848;2023-06-22T18:37:44;10.20;;;6.40;;
62435;SDS011;48480;50.252;18.848;2023-06-22T18:40:37;8.30;;;7.30;;
62435;SDS011;48480;50.252;18.848;2023-06-22T18:43:21;9.00;;;6.70;;
62435;SDS011;48480;50.252;18.848;2023-06-22T18:49:17;7.80;;;7.10;;
62435;SDS011;48480;50.252;18.848;2023-06-22T18:52:14;7.50;;;6.80;;
62435;SDS011;48480;50.252;18.848;2023-06-22T18:55:11;8.70;;;6.80;;
62435;SDS011;48480;50.252;18.848;2023-06-22T18:58:12;9.60;;;7.20;;
62435;SDS011;48480;50.252;18.848;2023-06-22T19:01:14;8.90;;;6.90;;
62435;SDS011;48480;50.252;18.848;2023-06-22T19:04:14;7.30;;;6.60;;
62435;SDS011;48480;50.252;18.848;2023-06-22T19:06:59;8.50;;;7.60;;
62435;SDS011;48480;50.252;18.848;2023-06-22T19:09:47;9.10;;;6.60;;
62435;SDS011;48480;50.252;18.848;2023-06-22T19:16:00;9.90;;;7.30;;
62435;SDS011;48480;50.252;18.848;2023-06-22T19:18:48;8.80;;;7.60;;
62435;SDS011;48480;50.252;18.848;2023-06-22T19:21:34;8.70;;;7.10;;
62435;SDS011;48480;50.252;18.848;2023-06-22T19:24:27;10.40;;;7.30;;
62435;SDS011;48480;50.252;18.848;2023-06-22T19:27:16;10.40;;;7.40;;
62435;SDS011;48480;50.252;18.848;2023-06-22T19:30:00;10.30;;;8.20;;
62435;SDS011;48480;50.252;18.848;2023-06-22T19:32:45;9.00;;;7.60;;
62435;SDS011;48480;50.252;18.848;2023-06-22T19:35:31;8.10;;;7.30;;
62435;SDS011;48480;50.252;18.848;2023-06-22T19:38:16;8.10;;;7.30;;
62435;SDS011;48480;50.252;18.848;2023-06-22T19:41:02;8.70;;;7.80;;
62435;SDS011;48480;50.252;18.848;2023-06-22T19:43:46;9.20;;;7.90;;
62435;SDS011;48480;50.252;18.848;2023-06-22T19:46:31;9.00;;;8.10;;
62435;SDS011;48480;50.252;18.848;2023-06-22T19:49:16;9.40;;;8.40;;
62435;SDS011;48480;50.252;18.848;2023-06-22T19:52:07;10.10;;;7.80;;
62435;SDS011;48480;50.252;18.848;2023-06-22T19:54:52;9.00;;;8.20;;
62435;SDS011;48480;50.252;18.848;2023-06-22T19:57:36;9.50;;;8.50;;
62435;SDS011;48480;50.252;18.848;2023-06-22T20:00:21;9.20;;;8.30;;
62435;SDS011;48480;50.252;18.848;2023-06-22T20:03:09;9.40;;;8.50;;